x

Lake Nipissing (45152) Weather Station

2:00pm - Fri 26th May 2017 All times are CDT. -5 hours from GMT.

  • Peak Period 3s
  • Wind
    2mph, 2mph gusts
  • Sea Temp 53°f
  • Air Temp 57°f
  • Sea Pressure 1008mb
  • Lake Nipissing
  • Lake Nipissing

More Historic Weather Station data

Upgrade to MSW Pro to gain access to the past 30 days of data for over 8000 Wavebouys and Weather Stations around the globe.

Join Pro

Comparision Forecast

View Surf forecast
   
Fri 05/26 2:00pm  -  3s 2 2 mph 1008mb 53f 57f
1:00pm  -  2s 2 4 mph 1007.5mb 54f 57f
12:00pm  -  3s 4 4 mph 1007.2mb 52f 56f
11:00am  -  2s 4 7 mph 1007.4mb 52f 55f
10:00am  -  2s 4 7 mph 1007.2mb 52f 55f
9:00am  -  3s 4 7 mph 1006.9mb 51f 54f
8:00am 0.3ft 2s  -  mph 1006.6mb 51f 54f
7:00am 0.3ft 2s 7 9 mph 1006.2mb 51f 53f
6:00am 0.3ft 2s 9 9 mph 1005.6mb 51f 53f
5:00am 0.3ft 2s 7 9 mph 1005mb 51f 53f
4:00am 0.3ft 2s 7 9 mph 1004.7mb 51f 53f
3:00am 0.7ft 2s 7 7 mph 1004.4mb 51f 53f
2:00am 0.7ft 2s 9 9 mph 1004.2mb 51f 54f
1:00am 0.7ft 2s 9 11 mph 1004.2mb 51f 54f
12:00am 0.7ft 2s 11 13 mph 1004.5mb 51f 54f
Thu 05/25 11:00pm 0.7ft 2s 7 9 mph 1005mb 51f 53f
10:00pm 1ft 3s 7 7 mph 1004.9mb 51f 53f
9:00pm 1ft 3s 11 13 mph 1004.7mb 51f 54f
8:00pm 1ft 3s 13 18 mph 1004mb 51f 56f
7:00pm 1.3ft 3s 11 16 mph 1003.7mb 51f 55f
6:00pm 1.6ft 3s 16 20 mph 1003.5mb 51f 56f
5:00pm 1.6ft 3s 16 20 mph 1003.6mb 51f 55f
4:00pm 1.6ft 3s 20 25 mph 1003.6mb 51f 56f
3:00pm 1ft 2s 16 18 mph 1004.5mb 51f 55f
2:00pm 1ft 3s 16 18 mph 1005mb 51f 55f
1:00pm 1.3ft 3s 13 16 mph 1005.5mb 52f 55f
12:00pm 1.3ft 3s 16 18 mph 1006.1mb 52f 55f
11:00am 1.6ft 3s 13 16 mph 1006.2mb 52f 55f
10:00am 1.3ft 3s 18 20 mph 1006.2mb 52f 56f
9:00am 0.7ft 2s 13 16 mph 1006.5mb 52f 55f
8:00am 0.3ft 2s 11 13 mph 1006.6mb 52f 55f
7:00am 0.3ft 2s 7 7 mph 1006.5mb 52f 55f
6:00am 0.3ft 2s 7 7 mph 1006.4mb 53f 55f
5:00am 0.3ft 2s 9 11 mph 1005.9mb 53f 56f
4:00am 0.3ft 2s 4 7 mph 1006.3mb 53f 55f
3:00am 0.3ft 2s 7 9 mph 1006.3mb 53f 55f
2:00am 0.3ft 2s 9 11 mph 1005.8mb 53f 56f
1:00am 0.3ft 2s 9 11 mph 1006.1mb 53f 56f
12:00am 0.3ft 2s 4 7 mph 1006.5mb 53f 55f
Wed 05/24 11:00pm  -  2s 7 7 mph 1006.9mb 53f 56f
10:00pm  -  3s 4 7 mph 1007mb 53f 55f
9:00pm  -  3s 4 4 mph 1007.2mb 53f 56f
8:00pm 0.3ft 3s 4 4 mph 1007.2mb 53f 55f
7:00pm 0.3ft 2s 9 9 mph 1007mb 53f 56f
6:00pm 0.3ft 3s 9 9 mph 1007mb 53f 56f
5:00pm  -  4s 7 9 mph 1007.1mb 54f 57f
4:00pm  -  3s 7 7 mph 1006.9mb 54f 58f
3:00pm  -  2s 7 7 mph 1007.1mb 54f 58f
2:00pm 0.3ft 2s 4 7 mph 1007.3mb 54f 56f
1:00pm 0.3ft 2s 7 7 mph 1007.5mb 53f 55f
12:00pm 0.3ft 2s 4 7 mph 1007.7mb 53f 55f
11:00am 0.3ft 2s 4 7 mph 1008mb 53f 54f
10:00am 0.3ft 2s 7 9 mph 1008.2mb 53f 54f
9:00am 0.3ft 2s 7 9 mph 1008.2mb 53f 53f
8:00am 0.3ft 2s 9 9 mph 1008.1mb 53f 53f
7:00am 0.3ft 2s 4 7 mph 1008mb 53f 53f
6:00am 0.3ft 2s 4 4 mph 1008.2mb 53f 53f
5:00am 0.3ft 2s 7 9 mph 1007.8mb 53f 53f
4:00am 0.7ft 2s 7 7 mph 1007.8mb 54f 54f
3:00am 0.7ft 2s 4 7 mph 1007.4mb 54f 53f
2:00am 0.3ft 2s 4 7 mph 1007.6mb 54f 55f
1:00am  -  2s 2 4 mph 1008mb 54f 52f
12:00am  -  3s 2 2 mph 1008.5mb 54f 54f
Tue 05/23 11:00pm  -  2s 2 4 mph 1008.9mb 54f 54f
10:00pm  -  2s 2 2 mph 1008.8mb 55f 56f
9:00pm  -  2s 4 7 mph 1008.6mb 56f 58f
8:00pm  -  2s 4 7 mph 1008.1mb 57f 60f
7:00pm  -  2s 4 4 mph 1008.3mb 57f 62f
6:00pm  -  2s 4 7 mph 1007.7mb 58f 61f
5:00pm  -  3s 4 7 mph 1007.5mb 58f 60f
4:00pm  -  3s 2 4 mph 1007.9mb 58f 61f
3:00pm  -  2s 2 4 mph 1008.3mb 58f 61f
2:00pm  -  3s 4 7 mph 1008.6mb 56f 59f
1:00pm  -  2s 7 7 mph 1009.1mb 56f 58f
12:00pm  -  2s 7 7 mph 1009.7mb 55f 57f
11:00am  -  2s 4 4 mph 1010.3mb 54f 55f
10:00am  -  2s 4 4 mph 1010.6mb 53f 51f
9:00am  -  2s 2 4 mph 1010.8mb 52f 51f
8:00am  -  2s 2 4 mph 1011.1mb 50f 50f
7:00am 0.3ft 2s 4 4 mph 1011.1mb 49f 49f
6:00am 0.3ft 2s 2 4 mph 1011.3mb 49f 48f
5:00am 0.3ft 2s 7 9 mph 1011mb 49f 48f
4:00am 0.3ft 2s 9 13 mph 1011mb 49f 48f
3:00am 0.3ft 2s 9 11 mph 1011mb 49f 47f
2:00am 0.7ft 2s 9 11 mph 1011.5mb 49f 47f
1:00am 0.7ft 2s 11 13 mph 1011.7mb 49f 48f
12:00am 0.7ft 2s 13 16 mph 1012mb 49f 49f
Mon 05/22 11:00pm 0.7ft 2s 18 20 mph 1012mb 49f 49f
10:00pm 1ft 2s 11 13 mph 1011.7mb 49f 50f